Flight Number: EUR1377 Duration: 2:00
Departure: Vágar Airport (EKVG) at 21:15 Distance: 696 Nm
Arrival: Gatwick Airport (EGKK) at 23:15 Equipment: CRJ700

Weather Information
Soervaag / Vagar, Denmark (EKVG) 62-04N 007-17W 92M Feb 24, 2018 - 12:50 AM EST / 2018.02.24 0550 UTC
Wind: from the S (170 degrees) at 24 MPH (21 KT):0
Sky conditions: mostly cloudy Temperature: 41 F (5 C) Dew Point: 32 F (0 C) Relative Humidity: 70% Pressure (altimeter): 30.00 in. Hg (1016 hPa)
ob: EKVG 240550Z AUTO 17021KT 9999NDV BKN030/// 05/00 Q1016 cycle: 6
Sunrise: 07:50 Sunset: 17:33 (UTC)

London / Gatwick Airport, United Kingdom (EGKK) 51-09N 000-11W 0M Feb 24, 2018 - 12:50 AM EST / 2018.02.24 0550 UTC
Wind: from the ENE (070 degrees) at 9 MPH (8 KT):0
Visibility: greater than 7 mile(s):0 Temperature: 26 F (-3 C)
Windchill: 17 F (-8 C):1 Dew Point: 23 F (-5 C) Relative Humidity: 86% Pressure (altimeter): 30.09 in. Hg (1019 hPa)
ob: EGKK 240550Z 07008KT CAVOK M03/M05 Q1019 cycle: 6
Sunrise: 06:58 Sunset: 17:29 (UTC)

TAF:2018/02/24 06:19 TAF EGKK 240454Z 2406/2512 08012KT 9999 SCT030 TEMPO 2406/2410 8000 PROB30 TEMPO 2412/2421 09015G25KT

This route has never been flown.

Route map